createdAt,value
2023-11-19T00:02:30.967Z,866
2023-11-19T00:07:49.603Z,860
2023-11-19T00:13:08.190Z,862
2023-11-19T00:18:26.398Z,867
2023-11-19T00:23:44.692Z,874
2023-11-19T00:29:02.846Z,870
2023-11-19T00:34:21.180Z,881
2023-11-19T00:39:39.356Z,872
2023-11-19T00:44:57.505Z,866
2023-11-19T00:50:15.419Z,867
2023-11-19T00:55:33.628Z,866
2023-11-19T01:00:52.053Z,867
2023-11-19T01:06:10.244Z,873
2023-11-19T01:11:28.782Z,871
2023-11-19T01:16:47.004Z,870
2023-11-19T01:22:05.217Z,874
2023-11-19T01:27:23.406Z,876
2023-11-19T01:32:41.883Z,871
2023-11-19T01:38:00.494Z,868
2023-11-19T01:43:18.853Z,871
2023-11-19T01:48:37.400Z,874
2023-11-19T01:53:56.061Z,871
2023-11-19T01:59:14.251Z,873
2023-11-19T02:04:32.889Z,877
2023-11-19T02:09:51.346Z,877
2023-11-19T02:15:09.677Z,879
2023-11-19T02:20:28.000Z,906
2023-11-19T02:25:46.301Z,1009
2023-11-19T02:31:04.759Z,997
2023-11-19T02:36:23.268Z,1005
2023-11-19T02:41:41.631Z,1020
2023-11-19T02:46:59.972Z,1029
2023-11-19T02:52:18.238Z,1047
2023-11-19T02:57:36.455Z,1057
2023-11-19T03:02:54.907Z,1059
2023-11-19T03:07:59.007Z,1069
2023-11-19T03:13:17.346Z,1074
2023-11-19T03:18:35.367Z,1078
2023-11-19T03:23:53.703Z,1089
2023-11-19T03:29:11.621Z,1117
2023-11-19T03:34:29.632Z,1131
2023-11-19T03:39:48.198Z,1137
2023-11-19T03:45:06.594Z,1155
2023-11-19T03:50:24.584Z,1158
2023-11-19T03:55:42.767Z,1160
2023-11-19T04:01:01.099Z,1172
2023-11-19T04:06:19.604Z,1181
2023-11-19T04:11:37.925Z,1217
2023-11-19T04:16:56.153Z,1241
2023-11-19T04:22:14.521Z,1250
2023-11-19T04:27:33.142Z,1245
2023-11-19T04:32:51.509Z,1245
2023-11-19T04:38:10.276Z,1233
2023-11-19T04:43:28.214Z,1231
2023-11-19T04:48:46.998Z,1235
2023-11-19T04:54:05.532Z,1238
2023-11-19T04:59:23.690Z,1257
2023-11-19T05:04:41.878Z,1261
2023-11-19T05:10:00.393Z,1262
2023-11-19T05:15:19.203Z,1265
2023-11-19T05:20:37.729Z,1257
2023-11-19T05:25:56.163Z,1266
2023-11-19T05:31:14.335Z,1273
2023-11-19T05:36:32.676Z,1272
2023-11-19T05:41:50.936Z,1271
2023-11-19T05:47:09.554Z,1279
2023-11-19T05:52:28.097Z,1278
2023-11-19T05:57:46.910Z,1277
2023-11-19T06:03:05.867Z,1296
2023-11-19T06:08:24.810Z,1281
2023-11-19T06:13:42.789Z,1273
2023-11-19T06:19:01.401Z,1276
2023-11-19T06:24:20.165Z,1276
2023-11-19T06:29:38.533Z,1274
2023-11-19T06:34:56.592Z,1274
2023-11-19T06:39:59.103Z,1273
2023-11-19T06:45:17.080Z,1279
2023-11-19T06:50:35.078Z,1277
2023-11-19T06:55:53.557Z,1279
2023-11-19T07:01:11.786Z,1267
2023-11-19T07:11:53.616Z,1240
2023-11-19T07:17:11.967Z,1219
2023-11-19T07:22:30.798Z,1206
2023-11-19T07:27:49.437Z,1195
2023-11-19T07:33:07.824Z,1225
2023-11-19T07:38:26.321Z,1237
2023-11-19T07:43:29.064Z,1234
2023-11-19T07:48:47.182Z,1189
2023-11-19T07:54:05.553Z,1197
2023-11-19T07:59:23.979Z,1158
2023-11-19T08:04:42.398Z,1107
2023-11-19T08:10:01.156Z,1040
2023-11-19T08:15:31.956Z,970
2023-11-19T08:20:51.071Z,904
2023-11-19T08:26:09.599Z,859
2023-11-19T08:31:28.355Z,827
2023-11-19T08:36:46.502Z,805
2023-11-19T08:42:04.842Z,792
2023-11-19T08:47:23.182Z,776
2023-11-19T08:52:41.780Z,764
2023-11-19T08:58:00.013Z,759
2023-11-19T09:03:18.478Z,569
2023-11-19T09:08:37.425Z,530
2023-11-19T09:13:56.026Z,534
2023-11-19T09:19:14.365Z,531
2023-11-19T09:24:32.545Z,531
2023-11-19T09:29:50.922Z,532
2023-11-19T09:35:09.266Z,529
2023-11-19T09:40:28.278Z,525
2023-11-19T09:45:46.376Z,521
2023-11-19T09:51:04.324Z,518
2023-11-19T09:56:22.808Z,516
2023-11-19T10:01:41.083Z,519
2023-11-19T10:06:59.234Z,517
2023-11-19T10:12:17.596Z,524
2023-11-19T10:17:36.086Z,527
2023-11-19T10:22:54.556Z,533
2023-11-19T10:28:12.669Z,542
2023-11-19T10:33:30.956Z,549
2023-11-19T10:38:49.408Z,552
2023-11-19T10:43:52.296Z,550
2023-11-19T10:49:10.723Z,553
2023-11-19T10:54:29.332Z,546
2023-11-19T10:59:47.514Z,540
2023-11-19T11:05:05.849Z,539
2023-11-19T11:10:24.337Z,534
2023-11-19T11:15:42.916Z,534
2023-11-19T11:21:01.035Z,532
2023-11-19T11:26:19.362Z,529
2023-11-19T11:31:38.159Z,529
2023-11-19T11:36:56.812Z,533
2023-11-19T11:42:15.170Z,537
2023-11-19T11:47:33.518Z,530
2023-11-19T11:52:51.813Z,528
2023-11-19T11:58:10.292Z,528
2023-11-19T12:03:28.939Z,527
2023-11-19T12:14:12.121Z,520
2023-11-19T12:19:30.676Z,524
2023-11-19T12:24:48.951Z,527
2023-11-19T12:30:07.173Z,546
2023-11-19T12:35:25.720Z,564
2023-11-19T12:40:44.037Z,571
2023-11-19T12:46:03.950Z,578
2023-11-19T12:51:24.717Z,580
2023-11-19T12:56:43.351Z,585
2023-11-19T13:02:01.571Z,606
2023-11-19T13:07:19.637Z,641
2023-11-19T13:12:38.361Z,696
2023-11-19T13:17:56.397Z,684
2023-11-19T13:23:14.651Z,694
2023-11-19T13:28:32.975Z,709
2023-11-19T13:33:51.562Z,730
2023-11-19T13:39:10.014Z,745
2023-11-19T13:44:28.614Z,758
2023-11-19T13:49:46.974Z,854
2023-11-19T13:55:05.334Z,857
2023-11-19T14:00:24.171Z,835
2023-11-19T14:05:42.691Z,832
2023-11-19T14:11:01.096Z,827
2023-11-19T14:16:19.683Z,850
2023-11-19T14:21:38.258Z,856
2023-11-19T14:26:56.800Z,838
2023-11-19T14:32:14.781Z,826
2023-11-19T14:37:32.983Z,814
2023-11-19T14:42:51.162Z,1014
2023-11-19T14:48:09.415Z,895
2023-11-19T14:53:27.366Z,874
2023-11-19T14:58:45.403Z,866
2023-11-19T15:04:05.317Z,859
2023-11-19T15:09:25.109Z,869
2023-11-19T15:14:43.514Z,940
2023-11-19T15:20:01.525Z,990
2023-11-19T15:25:20.070Z,1020
2023-11-19T15:30:38.227Z,1044
2023-11-19T15:35:56.691Z,1107
2023-11-19T15:41:15.026Z,1128
2023-11-19T15:46:33.280Z,1139
2023-11-19T15:51:51.460Z,1130
2023-11-19T15:57:09.746Z,1109
2023-11-19T16:02:27.996Z,1111
2023-11-19T16:07:47.279Z,1148
2023-11-19T16:13:05.737Z,1172
2023-11-19T16:18:24.119Z,1190
2023-11-19T16:23:26.873Z,1200
2023-11-19T16:28:44.803Z,1294
2023-11-19T16:34:03.036Z,1226
2023-11-19T16:39:21.429Z,1197
2023-11-19T16:44:39.561Z,1186
2023-11-19T16:49:57.929Z,1185
2023-11-19T16:55:16.252Z,1199
2023-11-19T17:00:34.583Z,1216
2023-11-19T17:05:52.748Z,1179
2023-11-19T17:11:11.280Z,1093
2023-11-19T17:16:29.794Z,1082
2023-11-19T17:21:47.968Z,1068
2023-11-19T17:27:06.296Z,1068
2023-11-19T17:32:24.397Z,1051
2023-11-19T17:37:43.133Z,1029
2023-11-19T17:43:01.292Z,1058
2023-11-19T17:48:19.633Z,1111
2023-11-19T17:53:37.965Z,1129
2023-11-19T17:58:56.247Z,1112
2023-11-19T18:04:14.465Z,1097
2023-11-19T18:09:33.097Z,1088
2023-11-19T18:14:54.134Z,1080
2023-11-19T18:20:13.066Z,1064
2023-11-19T18:25:31.724Z,1059
2023-11-19T18:30:49.964Z,1048
2023-11-19T18:36:08.356Z,1043
2023-11-19T18:41:26.753Z,1038
2023-11-19T18:46:44.981Z,1030
2023-11-19T18:52:03.485Z,1027
2023-11-19T18:57:21.853Z,1027
2023-11-19T19:02:40.275Z,1036
2023-11-19T19:07:59.302Z,1047
2023-11-19T19:13:17.664Z,1052
2023-11-19T19:18:35.781Z,1048
2023-11-19T19:23:54.104Z,1050
2023-11-19T19:29:12.659Z,1054
2023-11-19T19:34:31.046Z,1054
2023-11-19T19:39:49.745Z,1049
2023-11-19T19:45:07.688Z,1050
2023-11-19T19:50:25.875Z,1052
2023-11-19T19:55:44.151Z,1047
2023-11-19T20:01:02.315Z,1048
2023-11-19T20:06:20.453Z,1046
2023-11-19T20:11:39.890Z,1070
2023-11-19T20:22:25.595Z,1138
2023-11-19T20:27:44.230Z,1163
2023-11-19T20:33:02.869Z,1192
2023-11-19T20:38:22.623Z,1229
2023-11-19T20:43:40.952Z,1257
2023-11-19T20:48:59.392Z,1260
2023-11-19T20:59:58.343Z,1292
2023-11-19T21:05:16.500Z,1308
2023-11-19T21:10:34.987Z,1336
2023-11-19T21:15:56.532Z,1348
2023-11-19T21:21:17.541Z,1360
2023-11-19T21:26:35.819Z,1367
2023-11-19T21:31:55.429Z,1372
2023-11-19T21:37:14.115Z,1375
2023-11-19T21:42:32.294Z,1379
2023-11-19T21:47:50.313Z,1393
2023-11-19T21:53:08.782Z,1397
2023-11-19T21:58:11.507Z,1397
2023-11-19T22:03:30.376Z,1404
2023-11-19T22:08:49.271Z,1405
2023-11-19T22:14:07.765Z,1405
2023-11-19T22:19:26.343Z,1392
2023-11-19T22:24:44.568Z,1390
2023-11-19T22:30:03.188Z,1399
2023-11-19T22:35:21.283Z,1403
2023-11-19T22:40:39.631Z,1402
2023-11-19T22:45:57.997Z,1404
2023-11-19T22:51:16.264Z,1407
2023-11-19T22:56:34.780Z,1387
2023-11-19T23:01:53.067Z,1357
2023-11-19T23:07:11.233Z,1324
2023-11-19T23:12:29.726Z,1289
2023-11-19T23:17:48.138Z,1284
2023-11-19T23:23:06.580Z,1289
2023-11-19T23:28:25.343Z,1290
2023-11-19T23:33:43.546Z,1296
2023-11-19T23:39:02.080Z,1290
2023-11-19T23:44:20.240Z,1292
2023-11-19T23:49:38.526Z,1293
2023-11-19T23:54:56.847Z,1294
